Imperial Eagle — V7TK5 — position and weather

sailwx.info

Track history (hours):
 
Tides and Currents Weather Stations Pressure Air Temp Water Temp Dewpoint Dewpoint Depression Visibility Wind Speed Wind Dir Waves Ship Positions

Imperial Eagle

Last reported at 2015-Mar-14 15:33 UTC. Time now 2015-Mar-29 16:10 UTC.
Position S 08°43' E 115°44'.
Warning: this ship's position is 15 days out of date.

Length 190 m; draft 12.5 m.

Type: Cargo ship. MMSI: 256759020.

Date/timePositionNaut miles runAvg speedWind from/ knotsBaromVisibWave heightAir tempDewpointWater temp
2015-Mar-14 15:33S 08°43' E 115°44'9214.4
2015-Mar-14 09:12S 07°17' E 116°15'  
2015-Mar-11 19:32N 01°15' E 104°11'1414.1
2015-Mar-11 18:33N 01°14' E 103°57'8 8.2
2015-Mar-11 17:33N 01°13' E 103°49'0 0.3
2015-Mar-11 16:32N 01°13' E 103°49'1 0.8
2015-Mar-11 15:32N 01°12' E 103°49'10 9.6
2015-Mar-11 14:31N 01°17' E 103°58'0 0.3
2015-Mar-11 13:28N 01°17' E 103°58'0 0.0
2015-Mar-11 12:04N 01°17' E 103°58'0 0.0
2015-Mar-11 11:28N 01°17' E 103°58'0 0.0
2015-Mar-11 10:16N 01°17' E 103°58'0 0.0
2015-Mar-11 09:25N 01°17' E 103°58'0 0.0
2015-Mar-11 08:31N 01°17' E 103°58'0 0.0
2015-Mar-11 07:28N 01°17' E 103°58'0 0.0
2015-Mar-11 05:16N 01°17' E 103°58'0 0.1
2015-Mar-11 04:28N 01°17' E 103°58'0 0.1
2015-Mar-11 03:16N 01°17' E 103°58'0 0.0
2015-Mar-11 02:25N 01°17' E 103°58'0 0.1
2015-Mar-11 01:28N 01°17' E 103°58'0 0.0
2015-Mar-11 00:28N 01°17' E 103°58'0 0.0
2015-Mar-10 22:28N 01°17' E 103°58'0 0.1
2015-Mar-10 21:28N 01°17' E 103°58'0 0.1
2015-Mar-10 20:16N 01°17' E 103°58'0 0.0
2015-Mar-10 19:25N 01°17' E 103°58'0 0.0
2015-Mar-10 18:28N 01°17' E 103°58'0 0.1
2015-Mar-10 17:28N 01°17' E 103°58'0 0.0
2015-Mar-10 16:04N 01°17' E 103°58'0 0.0
2015-Mar-10 15:28N 01°17' E 103°58'0 0.0
2015-Mar-10 14:16N 01°17' E 103°58'0 0.0
2015-Mar-10 10:22N 01°17' E 103°58'0 0.0
2015-Mar-10 08:10N 01°17' E 103°58'0 0.0
2015-Mar-09 21:10N 01°17' E 103°58'0 0.0
2015-Mar-09 20:31N 01°17' E 103°58'0 0.0
2015-Mar-09 18:22N 01°17' E 103°58'0 0.1
2015-Mar-09 16:19N 01°17' E 103°58'0 0.0
2015-Mar-09 15:22N 01°17' E 103°58'0 0.0
2015-Mar-09 14:22N 01°17' E 103°58'0 0.0
2015-Mar-09 13:28N 01°17' E 103°58'0 0.0
2015-Mar-09 12:10N 01°17' E 103°58'0 0.0
2015-Mar-09 10:28N 01°17' E 103°58'0 0.0
2015-Mar-09 09:22N 01°17' E 103°58'0 0.0
2015-Mar-09 07:28N 01°17' E 103°58'0 0.0
2015-Mar-09 06:28N 01°17' E 103°58'0 0.1
2015-Mar-09 05:16N 01°17' E 103°58'0 0.1
2015-Mar-09 04:22N 01°17' E 103°58'0 0.1
2015-Mar-09 03:25N 01°17' E 103°58'0 0.0
2015-Mar-09 01:28N 01°17' E 103°58'0 0.0
2015-Mar-09 00:16N 01°17' E 103°58'0 0.0
2015-Mar-08 23:10N 01°17' E 103°58'0 0.0
2015-Mar-08 22:28N 01°17' E 103°58'0 0.0
2015-Mar-08 21:13N 01°17' E 103°58'0 0.0
2015-Mar-08 20:28N 01°17' E 103°58'0 0.1
2015-Mar-08 19:22N 01°17' E 103°58'0 0.0
2015-Mar-08 16:10N 01°17' E 103°58'0 0.0
2015-Mar-08 14:04N 01°17' E 103°58'0 0.0
2015-Mar-08 13:25N 01°17' E 103°58'0 0.1
2015-Mar-08 12:28N 01°17' E 103°58'0 0.1
2015-Mar-08 11:17N 01°17' E 103°58'1 1.1
2015-Mar-08 10:33N 01°17' E 103°58'5 5.3
2015-Mar-08 09:33N 01°14' E 103°54'5 3.3
2015-Mar-08 08:06N 01°13' E 103°49'1 1.4
2015-Mar-08 07:33N 01°12' E 103°50'5 5.0
2015-Mar-08 06:32N 01°14' E 103°55'5 5.0
2015-Mar-08 05:33N 01°16' E 103°60'6 5.9
2015-Mar-08 04:33N 01°16' E 104°06'6 6.1
2015-Mar-08 03:32N 01°17' E 104°12'  
Track history (hours):
 
Tides and Currents Weather Stations Pressure Air Temp Water Temp Dewpoint Dewpoint Depression Visibility Wind Speed Wind Dir Waves Ship Positions

Imperial Eagle

Last reported at 2015-Mar-14 15:33 UTC. Time now 2015-Mar-29 16:10 UTC.
Position S 08°43' E 115°44'.
Warning: this ship's position is 15 days out of date.

Length 190 m; draft 12.5 m.

Type: Cargo ship. MMSI: 256759020.

Date/timePositionNaut miles runAvg speedWind from/ knotsBaromVisibWave heightAir tempDewpointWater temp
2015-Mar-14 15:33S 08°43' E 115°44'9214.4
2015-Mar-14 09:12S 07°17' E 116°15'  
2015-Mar-11 19:32N 01°15' E 104°11'1414.1
2015-Mar-11 18:33N 01°14' E 103°57'8 8.2
2015-Mar-11 17:33N 01°13' E 103°49'0 0.3
2015-Mar-11 16:32N 01°13' E 103°49'1 0.8
2015-Mar-11 15:32N 01°12' E 103°49'10 9.6
2015-Mar-11 14:31N 01°17' E 103°58'0 0.3
2015-Mar-11 13:28N 01°17' E 103°58'0 0.0
2015-Mar-11 12:04N 01°17' E 103°58'0 0.0
2015-Mar-11 11:28N 01°17' E 103°58'0 0.0
2015-Mar-11 10:16N 01°17' E 103°58'0 0.0
2015-Mar-11 09:25N 01°17' E 103°58'0 0.0
2015-Mar-11 08:31N 01°17' E 103°58'0 0.0
2015-Mar-11 07:28N 01°17' E 103°58'0 0.0
2015-Mar-11 05:16N 01°17' E 103°58'0 0.1
2015-Mar-11 04:28N 01°17' E 103°58'0 0.1
2015-Mar-11 03:16N 01°17' E 103°58'0 0.0
2015-Mar-11 02:25N 01°17' E 103°58'0 0.1
2015-Mar-11 01:28N 01°17' E 103°58'0 0.0
2015-Mar-11 00:28N 01°17' E 103°58'0 0.0
2015-Mar-10 22:28N 01°17' E 103°58'0 0.1
2015-Mar-10 21:28N 01°17' E 103°58'0 0.1
2015-Mar-10 20:16N 01°17' E 103°58'0 0.0
2015-Mar-10 19:25N 01°17' E 103°58'0 0.0
2015-Mar-10 18:28N 01°17' E 103°58'0 0.1
2015-Mar-10 17:28N 01°17' E 103°58'0 0.0
2015-Mar-10 16:04N 01°17' E 103°58'0 0.0
2015-Mar-10 15:28N 01°17' E 103°58'0 0.0
2015-Mar-10 14:16N 01°17' E 103°58'0 0.0
2015-Mar-10 10:22N 01°17' E 103°58'0 0.0
2015-Mar-10 08:10N 01°17' E 103°58'0 0.0
2015-Mar-09 21:10N 01°17' E 103°58'0 0.0
2015-Mar-09 20:31N 01°17' E 103°58'0 0.0
2015-Mar-09 18:22N 01°17' E 103°58'0 0.1
2015-Mar-09 16:19N 01°17' E 103°58'0 0.0
2015-Mar-09 15:22N 01°17' E 103°58'0 0.0
2015-Mar-09 14:22N 01°17' E 103°58'0 0.0
2015-Mar-09 13:28N 01°17' E 103°58'0 0.0
2015-Mar-09 12:10N 01°17' E 103°58'0 0.0
2015-Mar-09 10:28N 01°17' E 103°58'0 0.0
2015-Mar-09 09:22N 01°17' E 103°58'0 0.0
2015-Mar-09 07:28N 01°17' E 103°58'0 0.0
2015-Mar-09 06:28N 01°17' E 103°58'0 0.1
2015-Mar-09 05:16N 01°17' E 103°58'0 0.1
2015-Mar-09 04:22N 01°17' E 103°58'0 0.1
2015-Mar-09 03:25N 01°17' E 103°58'0 0.0
2015-Mar-09 01:28N 01°17' E 103°58'0 0.0
2015-Mar-09 00:16N 01°17' E 103°58'0 0.0
2015-Mar-08 23:10N 01°17' E 103°58'0 0.0
2015-Mar-08 22:28N 01°17' E 103°58'0 0.0
2015-Mar-08 21:13N 01°17' E 103°58'0 0.0
2015-Mar-08 20:28N 01°17' E 103°58'0 0.1
2015-Mar-08 19:22N 01°17' E 103°58'0 0.0
2015-Mar-08 16:10N 01°17' E 103°58'0 0.0
2015-Mar-08 14:04N 01°17' E 103°58'0 0.0
2015-Mar-08 13:25N 01°17' E 103°58'0 0.1
2015-Mar-08 12:28N 01°17' E 103°58'0 0.1
2015-Mar-08 11:17N 01°17' E 103°58'1 1.1
2015-Mar-08 10:33N 01°17' E 103°58'5 5.3
2015-Mar-08 09:33N 01°14' E 103°54'5 3.3
2015-Mar-08 08:06N 01°13' E 103°49'1 1.4
2015-Mar-08 07:33N 01°12' E 103°50'5 5.0
2015-Mar-08 06:32N 01°14' E 103°55'5 5.0
2015-Mar-08 05:33N 01°16' E 103°60'6 5.9
2015-Mar-08 04:33N 01°16' E 104°06'6 6.1
2015-Mar-08 03:32N 01°17' E 104°12'  

Dump ship's entire track history